sensor_id;sensor_type;location;lat;lon;timestamp;pressure;altitude;pressure_sealevel;temperature;humidity
75668;BME280;64266;48.798;44.756;2022-12-20T00:00:54;103153.69;;;0.72;58.20
75668;BME280;64266;48.798;44.756;2022-12-20T00:03:20;103190.63;;;0.94;57.22
75668;BME280;64266;48.798;44.756;2022-12-20T00:05:46;103173.06;;;0.96;57.68
75668;BME280;64266;48.798;44.756;2022-12-20T00:08:13;103174.84;;;1.09;58.67
75668;BME280;64266;48.798;44.756;2022-12-20T00:10:42;103187.78;;;1.11;57.38
75668;BME280;64266;48.798;44.756;2022-12-20T00:13:09;103153.13;;;0.95;57.35
75668;BME280;64266;48.798;44.756;2022-12-20T00:15:35;103145.56;;;0.90;57.02
75668;BME280;64266;48.798;44.756;2022-12-20T00:18:02;103188.16;;;1.19;57.90
75668;BME280;64266;48.798;44.756;2022-12-20T00:20:28;103194.13;;;1.21;57.88
75668;BME280;64266;48.798;44.756;2022-12-20T00:22:54;103172.69;;;1.16;58.09
75668;BME280;64266;48.798;44.756;2022-12-20T00:25:20;103178.91;;;1.28;58.37
75668;BME280;64266;48.798;44.756;2022-12-20T00:27:47;103159.22;;;1.22;56.83
75668;BME280;64266;48.798;44.756;2022-12-20T00:30:14;103126.44;;;1.04;58.36
75668;BME280;64266;48.798;44.756;2022-12-20T00:32:40;103147.94;;;1.22;57.38
75668;BME280;64266;48.798;44.756;2022-12-20T00:35:06;103144.00;;;1.29;58.46
75668;BME280;64266;48.798;44.756;2022-12-20T00:37:32;103140.22;;;1.33;57.02
75668;BME280;64266;48.798;44.756;2022-12-20T00:39:58;103161.69;;;1.38;58.49
75668;BME280;64266;48.798;44.756;2022-12-20T00:42:25;103139.25;;;1.21;57.96
75668;BME280;64266;48.798;44.756;2022-12-20T00:44:51;103157.31;;;1.38;58.18
75668;BME280;64266;48.798;44.756;2022-12-20T00:47:17;103118.59;;;1.04;57.52
75668;BME280;64266;48.798;44.756;2022-12-20T00:49:43;103160.53;;;1.29;58.54
75668;BME280;64266;48.798;44.756;2022-12-20T00:52:09;103186.25;;;1.35;58.71
75668;BME280;64266;48.798;44.756;2022-12-20T00:54:34;103145.78;;;1.14;58.95
75668;BME280;64266;48.798;44.756;2022-12-20T00:57:00;103198.19;;;1.39;58.47
75668;BME280;64266;48.798;44.756;2022-12-20T00:59:26;103182.88;;;1.33;58.97
75668;BME280;64266;48.798;44.756;2022-12-20T01:01:54;103202.47;;;1.40;58.08
75668;BME280;64266;48.798;44.756;2022-12-20T01:04:20;103186.47;;;1.18;58.19
75668;BME280;64266;48.798;44.756;2022-12-20T01:06:46;103171.09;;;1.14;58.42
75668;BME280;64266;48.798;44.756;2022-12-20T01:09:12;103202.41;;;1.28;58.65
75668;BME280;64266;48.798;44.756;2022-12-20T01:11:38;103208.69;;;1.25;58.46
75668;BME280;64266;48.798;44.756;2022-12-20T01:14:08;103214.00;;;1.24;58.50
75668;BME280;64266;48.798;44.756;2022-12-20T01:16:38;103217.38;;;1.26;59.23
75668;BME280;64266;48.798;44.756;2022-12-20T01:19:06;103223.78;;;1.20;58.91
75668;BME280;64266;48.798;44.756;2022-12-20T01:21:33;103195.47;;;1.00;59.26
75668;BME280;64266;48.798;44.756;2022-12-20T01:23:59;103223.72;;;1.22;58.37
75668;BME280;64266;48.798;44.756;2022-12-20T01:26:27;103230.31;;;1.27;57.89
75668;BME280;64266;48.798;44.756;2022-12-20T01:28:55;103232.94;;;1.27;58.80
75668;BME280;64266;48.798;44.756;2022-12-20T01:31:23;103222.13;;;1.19;58.10
75668;BME280;64266;48.798;44.756;2022-12-20T01:33:50;103212.53;;;1.05;58.97
75668;BME280;64266;48.798;44.756;2022-12-20T01:36:20;103219.53;;;1.19;59.11
75668;BME280;64266;48.798;44.756;2022-12-20T01:38:46;103220.78;;;1.26;59.30
75668;BME280;64266;48.798;44.756;2022-12-20T01:41:17;103223.88;;;1.33;59.26
75668;BME280;64266;48.798;44.756;2022-12-20T01:43:52;103193.47;;;1.18;59.40
75668;BME280;64266;48.798;44.756;2022-12-20T01:46:22;103207.44;;;1.31;59.88
75668;BME280;64266;48.798;44.756;2022-12-20T01:48:56;103221.38;;;1.58;58.87
75668;BME280;64266;48.798;44.756;2022-12-20T01:51:24;103186.59;;;1.43;58.71
75668;BME280;64266;48.798;44.756;2022-12-20T01:53:56;103221.09;;;1.62;60.33
75668;BME280;64266;48.798;44.756;2022-12-20T01:56:24;103214.25;;;1.60;59.24
75668;BME280;64266;48.798;44.756;2022-12-20T01:58:50;103231.16;;;1.69;59.44
75668;BME280;64266;48.798;44.756;2022-12-20T02:01:21;103227.75;;;1.81;58.97
75668;BME280;64266;48.798;44.756;2022-12-20T02:03:47;103215.25;;;1.72;58.60
75668;BME280;64266;48.798;44.756;2022-12-20T02:06:17;103230.66;;;1.76;59.07
75668;BME280;64266;48.798;44.756;2022-12-20T02:08:45;103178.75;;;1.43;59.17
75668;BME280;64266;48.798;44.756;2022-12-20T02:11:39;103194.38;;;1.57;59.84
75668;BME280;64266;48.798;44.756;2022-12-20T02:20:14;103231.41;;;1.91;58.70
75668;BME280;64266;48.798;44.756;2022-12-20T02:28:14;103216.78;;;1.61;58.67
75668;BME280;64266;48.798;44.756;2022-12-20T02:30:45;103214.22;;;1.74;59.56
75668;BME280;64266;48.798;44.756;2022-12-20T02:33:13;103229.19;;;1.85;58.49
75668;BME280;64266;48.798;44.756;2022-12-20T02:35:41;103240.66;;;1.96;59.06
75668;BME280;64266;48.798;44.756;2022-12-20T02:40:57;103222.59;;;1.79;58.67
75668;BME280;64266;48.798;44.756;2022-12-20T02:43:25;103249.13;;;1.87;58.94
75668;BME280;64266;48.798;44.756;2022-12-20T02:46:11;103245.59;;;1.74;58.87
75668;BME280;64266;48.798;44.756;2022-12-20T02:48:39;103240.56;;;1.71;59.29
75668;BME280;64266;48.798;44.756;2022-12-20T02:51:08;103238.09;;;1.82;59.72
75668;BME280;64266;48.798;44.756;2022-12-20T02:53:35;103247.91;;;1.79;58.81
75668;BME280;64266;48.798;44.756;2022-12-20T02:56:17;103244.56;;;1.77;59.01
75668;BME280;64266;48.798;44.756;2022-12-20T02:58:52;103243.91;;;1.73;59.59
75668;BME280;64266;48.798;44.756;2022-12-20T03:01:29;103247.63;;;1.83;59.26
75668;BME280;64266;48.798;44.756;2022-12-20T03:03:57;103189.91;;;1.59;59.42
75668;BME280;64266;48.798;44.756;2022-12-20T03:06:23;103129.56;;;1.09;59.29
75668;BME280;64266;48.798;44.756;2022-12-20T03:08:49;103242.31;;;1.97;59.25
75668;BME280;64266;48.798;44.756;2022-12-20T03:11:16;103239.19;;;1.92;58.63
75668;BME280;64266;48.798;44.756;2022-12-20T03:13:42;103196.97;;;1.72;59.20
75668;BME280;64266;48.798;44.756;2022-12-20T03:16:09;103254.91;;;2.05;59.39
75668;BME280;64266;48.798;44.756;2022-12-20T03:18:36;103232.34;;;1.77;58.48
75668;BME280;64266;48.798;44.756;2022-12-20T03:21:02;103196.84;;;1.73;59.62
75668;BME280;64266;48.798;44.756;2022-12-20T03:23:28;103189.63;;;1.77;59.25
75668;BME280;64266;48.798;44.756;2022-12-20T03:25:55;103158.00;;;1.67;58.89
75668;BME280;64266;48.798;44.756;2022-12-20T03:28:30;103244.38;;;2.19;58.64
75668;BME280;64266;48.798;44.756;2022-12-20T03:30:56;103221.41;;;2.10;58.49
75668;BME280;64266;48.798;44.756;2022-12-20T03:33:22;103247.75;;;2.21;58.85
75668;BME280;64266;48.798;44.756;2022-12-20T03:35:49;103201.22;;;1.99;59.40
75668;BME280;64266;48.798;44.756;2022-12-20T03:38:17;103200.56;;;1.96;58.78
75668;BME280;64266;48.798;44.756;2022-12-20T03:40:43;103248.56;;;2.22;58.25
75668;BME280;64266;48.798;44.756;2022-12-20T03:43:12;103255.38;;;2.24;58.86
75668;BME280;64266;48.798;44.756;2022-12-20T03:45:38;103213.47;;;1.99;59.06
75668;BME280;64266;48.798;44.756;2022-12-20T03:48:05;103241.75;;;2.19;58.98
75668;BME280;64266;48.798;44.756;2022-12-20T03:50:31;103269.97;;;2.41;57.39
75668;BME280;64266;48.798;44.756;2022-12-20T03:52:59;103277.38;;;2.34;58.29
75668;BME280;64266;48.798;44.756;2022-12-20T03:55:26;103288.50;;;2.38;57.71
75668;BME280;64266;48.798;44.756;2022-12-20T03:57:52;103286.84;;;2.37;57.29
75668;BME280;64266;48.798;44.756;2022-12-20T04:00:26;103280.59;;;2.25;57.61
75668;BME280;64266;48.798;44.756;2022-12-20T04:02:59;103276.44;;;2.35;57.79
75668;BME280;64266;48.798;44.756;2022-12-20T04:05:26;103258.53;;;2.29;57.77
75668;BME280;64266;48.798;44.756;2022-12-20T04:07:52;103273.84;;;2.48;58.20
75668;BME280;64266;48.798;44.756;2022-12-20T04:10:18;103247.97;;;2.31;57.48
75668;BME280;64266;48.798;44.756;2022-12-20T04:12:44;103264.84;;;2.39;57.42
75668;BME280;64266;48.798;44.756;2022-12-20T04:15:13;103248.06;;;2.42;57.44
75668;BME280;64266;48.798;44.756;2022-12-20T04:17:41;103248.19;;;2.28;57.00
75668;BME280;64266;48.798;44.756;2022-12-20T04:20:12;103137.25;;;1.51;57.08
75668;BME280;64266;48.798;44.756;2022-12-20T04:22:50;103285.38;;;2.45;56.61
75668;BME280;64266;48.798;44.756;2022-12-20T04:25:18;103280.03;;;2.59;57.37
75668;BME280;64266;48.798;44.756;2022-12-20T04:27:45;103247.44;;;2.38;56.92
75668;BME280;64266;48.798;44.756;2022-12-20T04:30:12;103307.81;;;2.62;56.04
75668;BME280;64266;48.798;44.756;2022-12-20T04:32:38;103305.94;;;2.64;56.92
75668;BME280;64266;48.798;44.756;2022-12-20T04:35:05;103257.91;;;2.38;56.55
75668;BME280;64266;48.798;44.756;2022-12-20T04:37:36;103280.44;;;2.53;56.72
75668;BME280;64266;48.798;44.756;2022-12-20T04:40:03;103301.53;;;2.64;56.85
75668;BME280;64266;48.798;44.756;2022-12-20T04:43:01;103274.06;;;2.57;56.66
75668;BME280;64266;48.798;44.756;2022-12-20T04:45:27;103267.56;;;2.50;56.20
75668;BME280;64266;48.798;44.756;2022-12-20T04:47:54;103273.44;;;2.54;56.83
75668;BME280;64266;48.798;44.756;2022-12-20T04:50:26;103307.59;;;2.65;56.34
75668;BME280;64266;48.798;44.756;2022-12-20T04:52:52;103267.13;;;2.31;56.57
75668;BME280;64266;48.798;44.756;2022-12-20T04:55:39;103326.25;;;2.60;56.09
75668;BME280;64266;48.798;44.756;2022-12-20T04:58:06;103289.13;;;2.41;56.21
75668;BME280;64266;48.798;44.756;2022-12-20T05:00:34;103317.56;;;2.60;55.49
75668;BME280;64266;48.798;44.756;2022-12-20T05:03:08;103302.97;;;2.56;55.77
75668;BME280;64266;48.798;44.756;2022-12-20T05:05:35;103278.13;;;2.36;55.90
75668;BME280;64266;48.798;44.756;2022-12-20T05:08:00;103325.63;;;2.69;56.46
75668;BME280;64266;48.798;44.756;2022-12-20T05:10:29;103314.31;;;2.69;56.09
75668;BME280;64266;48.798;44.756;2022-12-20T05:12:59;103329.13;;;2.83;56.19
75668;BME280;64266;48.798;44.756;2022-12-20T05:15:33;103325.84;;;2.79;55.82
75668;BME280;64266;48.798;44.756;2022-12-20T05:18:00;103323.25;;;2.79;55.60
75668;BME280;64266;48.798;44.756;2022-12-20T05:20:35;103324.59;;;2.85;55.54
75668;BME280;64266;48.798;44.756;2022-12-20T05:23:04;103305.00;;;2.78;55.92
75668;BME280;64266;48.798;44.756;2022-12-20T05:25:54;103334.44;;;2.81;54.82
75668;BME280;64266;48.798;44.756;2022-12-20T05:28:39;103322.81;;;2.72;54.87
75668;BME280;64266;48.798;44.756;2022-12-20T05:31:06;103340.13;;;2.88;54.90
75668;BME280;64266;48.798;44.756;2022-12-20T05:33:34;103328.28;;;2.95;54.64
75668;BME280;64266;48.798;44.756;2022-12-20T05:36:03;103340.97;;;3.01;55.32
75668;BME280;64266;48.798;44.756;2022-12-20T05:38:29;103285.50;;;2.82;54.37
75668;BME280;64266;48.798;44.756;2022-12-20T05:40:55;103295.56;;;2.88;53.41
75668;BME280;64266;48.798;44.756;2022-12-20T05:43:21;103325.53;;;2.96;53.83
75668;BME280;64266;48.798;44.756;2022-12-20T05:45:51;103353.75;;;3.05;53.85
75668;BME280;64266;48.798;44.756;2022-12-20T05:48:27;103336.25;;;3.06;53.89
75668;BME280;64266;48.798;44.756;2022-12-20T05:50:54;103355.72;;;3.27;54.93
75668;BME280;64266;48.798;44.756;2022-12-20T05:53:29;103379.13;;;3.17;54.19
75668;BME280;64266;48.798;44.756;2022-12-20T05:55:59;103332.66;;;2.82;54.68
75668;BME280;64266;48.798;44.756;2022-12-20T05:58:32;103373.47;;;2.98;54.35
75668;BME280;64266;48.798;44.756;2022-12-20T06:01:05;103385.19;;;3.05;53.29
75668;BME280;64266;48.798;44.756;2022-12-20T06:03:38;103366.03;;;2.92;53.43
75668;BME280;64266;48.798;44.756;2022-12-20T06:06:16;103391.28;;;3.06;53.61
75668;BME280;64266;48.798;44.756;2022-12-20T06:08:45;103364.34;;;3.04;53.43
75668;BME280;64266;48.798;44.756;2022-12-20T06:11:30;103354.06;;;3.01;53.86
75668;BME280;64266;48.798;44.756;2022-12-20T06:14:04;103388.47;;;3.21;53.53
75668;BME280;64266;48.798;44.756;2022-12-20T06:16:31;103389.09;;;3.12;53.03
75668;BME280;64266;48.798;44.756;2022-12-20T06:18:59;103355.41;;;2.94;52.66
75668;BME280;64266;48.798;44.756;2022-12-20T06:21:29;103363.78;;;2.99;51.90
75668;BME280;64266;48.798;44.756;2022-12-20T06:23:58;103377.13;;;3.08;53.54
75668;BME280;64266;48.798;44.756;2022-12-20T06:26:39;103369.78;;;3.01;52.36
75668;BME280;64266;48.798;44.756;2022-12-20T06:29:08;103389.28;;;3.09;52.51
75668;BME280;64266;48.798;44.756;2022-12-20T06:31:48;103370.41;;;2.92;52.18
75668;BME280;64266;48.798;44.756;2022-12-20T06:34:14;103341.03;;;2.87;52.42
75668;BME280;64266;48.798;44.756;2022-12-20T06:36:42;103376.09;;;2.98;51.88
75668;BME280;64266;48.798;44.756;2022-12-20T06:39:15;103379.09;;;3.05;52.35
75668;BME280;64266;48.798;44.756;2022-12-20T06:41:50;103405.88;;;3.10;52.35
75668;BME280;64266;48.798;44.756;2022-12-20T06:44:16;103408.69;;;3.07;52.83
75668;BME280;64266;48.798;44.756;2022-12-20T06:46:43;103420.22;;;3.17;52.07
75668;BME280;64266;48.798;44.756;2022-12-20T06:49:10;103407.44;;;3.12;51.23
75668;BME280;64266;48.798;44.756;2022-12-20T06:51:36;103421.91;;;3.18;52.03
75668;BME280;64266;48.798;44.756;2022-12-20T06:54:03;103347.88;;;2.77;52.48
75668;BME280;64266;48.798;44.756;2022-12-20T06:56:32;103396.00;;;3.01;52.50
75668;BME280;64266;48.798;44.756;2022-12-20T06:58:58;103340.41;;;2.70;52.01
75668;BME280;64266;48.798;44.756;2022-12-20T07:01:24;103411.97;;;3.10;53.43
75668;BME280;64266;48.798;44.756;2022-12-20T07:03:50;103390.41;;;2.93;52.57
75668;BME280;64266;48.798;44.756;2022-12-20T07:06:16;103384.56;;;3.02;52.83
75668;BME280;64266;48.798;44.756;2022-12-20T07:08:43;103320.81;;;2.63;51.59
75668;BME280;64266;48.798;44.756;2022-12-20T07:11:10;103396.53;;;3.18;53.26
75668;BME280;64266;48.798;44.756;2022-12-20T07:13:36;103392.34;;;3.16;51.76
75668;BME280;64266;48.798;44.756;2022-12-20T07:16:02;103416.47;;;3.46;51.96
75668;BME280;64266;48.798;44.756;2022-12-20T07:18:29;103343.88;;;3.09;51.99
75668;BME280;64266;48.798;44.756;2022-12-20T07:21:03;103380.25;;;3.39;51.72
75668;BME280;64266;48.798;44.756;2022-12-20T07:23:30;103423.59;;;3.57;51.07
75668;BME280;64266;48.798;44.756;2022-12-20T07:25:58;103400.31;;;3.52;52.36
75668;BME280;64266;48.798;44.756;2022-12-20T07:28:27;103310.44;;;3.00;51.10
75668;BME280;64266;48.798;44.756;2022-12-20T07:30:53;103405.25;;;3.57;51.91
75668;BME280;64266;48.798;44.756;2022-12-20T07:33:19;103409.00;;;3.53;51.41
75668;BME280;64266;48.798;44.756;2022-12-20T07:35:46;103419.72;;;3.62;49.96
75668;BME280;64266;48.798;44.756;2022-12-20T07:38:12;103410.66;;;3.79;51.42
75668;BME280;64266;48.798;44.756;2022-12-20T07:40:40;103389.56;;;3.68;51.24
75668;BME280;64266;48.798;44.756;2022-12-20T07:43:10;103340.84;;;3.40;50.83
75668;BME280;64266;48.798;44.756;2022-12-20T07:45:36;103388.56;;;3.94;49.98
75668;BME280;64266;48.798;44.756;2022-12-20T07:48:04;103258.94;;;3.24;51.07
75668;BME280;64266;48.798;44.756;2022-12-20T07:50:31;103398.81;;;4.10;50.45
75668;BME280;64266;48.798;44.756;2022-12-20T07:53:00;103267.84;;;3.21;51.07
75668;BME280;64266;48.798;44.756;2022-12-20T07:55:27;103402.50;;;4.07;50.12
75668;BME280;64266;48.798;44.756;2022-12-20T07:58:00;103376.50;;;3.92;49.40
75668;BME280;64266;48.798;44.756;2022-12-20T08:00:26;103386.59;;;3.85;50.38
75668;BME280;64266;48.798;44.756;2022-12-20T08:05:26;103312.06;;;3.39;50.02
75668;BME280;64266;48.798;44.756;2022-12-20T08:07:53;103245.34;;;3.06;50.96
75668;BME280;64266;48.798;44.756;2022-12-20T08:10:25;103239.59;;;3.01;50.58
75668;BME280;64266;48.798;44.756;2022-12-20T08:13:03;103377.09;;;3.71;49.83
75668;BME280;64266;48.798;44.756;2022-12-20T08:15:30;103293.03;;;3.11;51.03
75668;BME280;64266;48.798;44.756;2022-12-20T08:18:00;103400.78;;;3.82;50.26
75668;BME280;64266;48.798;44.756;2022-12-20T08:20:28;103232.16;;;2.83;50.66
75668;BME280;64266;48.798;44.756;2022-12-20T08:23:11;103380.34;;;3.75;50.09
75668;BME280;64266;48.798;44.756;2022-12-20T08:25:37;103389.16;;;3.74;50.96
75668;BME280;64266;48.798;44.756;2022-12-20T08:28:08;103388.28;;;3.86;51.82
75668;BME280;64266;48.798;44.756;2022-12-20T08:30:38;103224.16;;;2.97;49.93
75668;BME280;64266;48.798;44.756;2022-12-20T08:33:05;103316.84;;;3.57;50.14
75668;BME280;64266;48.798;44.756;2022-12-20T08:35:33;103296.75;;;3.45;50.06
75668;BME280;64266;48.798;44.756;2022-12-20T08:38:02;103286.59;;;3.41;49.91
75668;BME280;64266;48.798;44.756;2022-12-20T08:40:28;103245.59;;;3.27;50.43
75668;BME280;64266;48.798;44.756;2022-12-20T08:42:58;103344.56;;;3.98;50.76
75668;BME280;64266;48.798;44.756;2022-12-20T08:45:25;103316.97;;;3.92;49.94
75668;BME280;64266;48.798;44.756;2022-12-20T08:47:52;103359.28;;;4.24;50.49
75668;BME280;64266;48.798;44.756;2022-12-20T08:50:20;103316.19;;;4.03;51.06
75668;BME280;64266;48.798;44.756;2022-12-20T08:52:45;103309.03;;;4.05;50.86
75668;BME280;64266;48.798;44.756;2022-12-20T08:55:12;103337.03;;;4.17;51.02
75668;BME280;64266;48.798;44.756;2022-12-20T08:57:39;103355.13;;;4.32;51.44
75668;BME280;64266;48.798;44.756;2022-12-20T09:00:05;103301.25;;;4.03;50.17
75668;BME280;64266;48.798;44.756;2022-12-20T09:02:33;103357.13;;;4.29;51.31
75668;BME280;64266;48.798;44.756;2022-12-20T09:04:59;103321.94;;;4.08;50.46
75668;BME280;64266;48.798;44.756;2022-12-20T09:07:25;103345.69;;;4.30;50.18
75668;BME280;64266;48.798;44.756;2022-12-20T09:09:52;103364.47;;;4.36;50.93
75668;BME280;64266;48.798;44.756;2022-12-20T09:12:18;103327.22;;;4.19;50.76
75668;BME280;64266;48.798;44.756;2022-12-20T09:14:43;103306.50;;;4.03;49.74
75668;BME280;64266;48.798;44.756;2022-12-20T09:17:10;103356.88;;;4.21;50.69
75668;BME280;64266;48.798;44.756;2022-12-20T09:19:36;103352.94;;;4.26;51.64
75668;BME280;64266;48.798;44.756;2022-12-20T09:22:02;103345.13;;;4.14;51.15
75668;BME280;64266;48.798;44.756;2022-12-20T09:24:29;103336.84;;;4.07;50.04
75668;BME280;64266;48.798;44.756;2022-12-20T09:26:56;103228.63;;;3.56;50.66
75668;BME280;64266;48.798;44.756;2022-12-20T09:29:22;103335.34;;;4.16;50.47
75668;BME280;64266;48.798;44.756;2022-12-20T09:31:49;103304.47;;;3.96;50.12
75668;BME280;64266;48.798;44.756;2022-12-20T09:34:15;103320.88;;;3.87;50.20
75668;BME280;64266;48.798;44.756;2022-12-20T09:36:42;103337.91;;;3.81;50.63
75668;BME280;64266;48.798;44.756;2022-12-20T09:39:09;103345.66;;;3.82;50.97
75668;BME280;64266;48.798;44.756;2022-12-20T09:41:38;103270.44;;;3.34;51.03
75668;BME280;64266;48.798;44.756;2022-12-20T09:44:18;103329.28;;;3.79;51.34
75668;BME280;64266;48.798;44.756;2022-12-20T09:46:54;103296.25;;;3.76;51.82
75668;BME280;64266;48.798;44.756;2022-12-20T09:49:25;103317.47;;;3.97;51.33
75668;BME280;64266;48.798;44.756;2022-12-20T10:00:02;103157.31;;;2.91;51.78
75668;BME280;64266;48.798;44.756;2022-12-20T10:02:31;103212.56;;;3.24;50.80
75668;BME280;64266;48.798;44.756;2022-12-20T10:04:57;103247.88;;;3.44;50.65
75668;BME280;64266;48.798;44.756;2022-12-20T10:07:32;103324.44;;;3.86;52.37
75668;BME280;64266;48.798;44.756;2022-12-20T10:10:38;103320.09;;;3.97;52.17
75668;BME280;64266;48.798;44.756;2022-12-20T10:13:23;103307.00;;;3.84;52.43
75668;BME280;64266;48.798;44.756;2022-12-20T10:17:04;103314.88;;;3.84;52.76
75668;BME280;64266;48.798;44.756;2022-12-20T10:22:29;103306.81;;;3.88;52.09
75668;BME280;64266;48.798;44.756;2022-12-20T10:25:13;103315.72;;;3.85;52.06
75668;BME280;64266;48.798;44.756;2022-12-20T10:27:43;103320.09;;;3.97;52.91
75668;BME280;64266;48.798;44.756;2022-12-20T10:30:13;103279.56;;;3.77;51.70
75668;BME280;64266;48.798;44.756;2022-12-20T10:32:44;103295.75;;;3.71;51.77
75668;BME280;64266;48.798;44.756;2022-12-20T10:37:36;103297.72;;;3.44;53.18
75668;BME280;64266;48.798;44.756;2022-12-20T10:40:03;103266.69;;;3.25;53.29
75668;BME280;64266;48.798;44.756;2022-12-20T10:42:38;103314.09;;;3.71;52.40
75668;BME280;64266;48.798;44.756;2022-12-20T10:45:41;103311.31;;;3.62;52.06
75668;BME280;64266;48.798;44.756;2022-12-20T10:50:59;103317.13;;;3.78;51.48
75668;BME280;64266;48.798;44.756;2022-12-20T10:53:25;103315.00;;;3.83;51.19
75668;BME280;64266;48.798;44.756;2022-12-20T10:55:54;103295.75;;;3.71;51.83
75668;BME280;64266;48.798;44.756;2022-12-20T10:58:35;103274.38;;;3.52;52.12
75668;BME280;64266;48.798;44.756;2022-12-20T11:01:04;103260.16;;;3.44;51.22
75668;BME280;64266;48.798;44.756;2022-12-20T11:03:31;103315.00;;;3.59;52.21
75668;BME280;64266;48.798;44.756;2022-12-20T11:06:02;103296.97;;;3.42;52.60
75668;BME280;64266;48.798;44.756;2022-12-20T11:08:30;103307.44;;;3.55;53.02
75668;BME280;64266;48.798;44.756;2022-12-20T11:11:22;103312.25;;;3.61;53.27
75668;BME280;64266;48.798;44.756;2022-12-20T11:13:50;103291.50;;;3.45;52.35
75668;BME280;64266;48.798;44.756;2022-12-20T11:16:34;103291.66;;;3.31;52.43
75668;BME280;64266;48.798;44.756;2022-12-20T11:19:30;103172.56;;;2.61;53.33
75668;BME280;64266;48.798;44.756;2022-12-20T11:22:37;103195.78;;;2.78;52.57
75668;BME280;64266;48.798;44.756;2022-12-20T11:28:44;103302.63;;;3.36;53.41
75668;BME280;64266;48.798;44.756;2022-12-20T11:31:00;103304.53;;;3.34;53.04
75668;BME280;64266;48.798;44.756;2022-12-20T11:53:47;103301.91;;;3.47;54.92
75668;BME280;64266;48.798;44.756;2022-12-20T11:56:24;103300.50;;;3.54;53.26
75668;BME280;64266;48.798;44.756;2022-12-20T11:59:18;103205.84;;;2.84;53.83
75668;BME280;64266;48.798;44.756;2022-12-20T12:01:53;103236.31;;;3.10;54.31
75668;BME280;64266;48.798;44.756;2022-12-20T12:04:30;103198.31;;;2.92;53.99
75668;BME280;64266;48.798;44.756;2022-12-20T12:07:11;103295.09;;;3.44;53.65
75668;BME280;64266;48.798;44.756;2022-12-20T12:10:02;103295.75;;;3.22;53.84
75668;BME280;64266;48.798;44.756;2022-12-20T12:12:49;103310.53;;;3.23;54.52
75668;BME280;64266;48.798;44.756;2022-12-20T12:24:06;103116.31;;;2.03;56.04
75668;BME280;64266;48.798;44.756;2022-12-20T12:26:45;103297.63;;;3.20;55.80
75668;BME280;64266;48.798;44.756;2022-12-20T12:29:18;103213.06;;;2.81;54.92
75668;BME280;64266;48.798;44.756;2022-12-20T12:37:37;103286.69;;;3.39;54.57
75668;BME280;64266;48.798;44.756;2022-12-20T12:46:21;103244.28;;;3.09;54.88
75668;BME280;64266;48.798;44.756;2022-12-20T12:51:32;103285.56;;;3.31;55.26
75668;BME280;64266;48.798;44.756;2022-12-20T12:54:13;103273.41;;;3.17;55.43
75668;BME280;64266;48.798;44.756;2022-12-20T12:56:52;103182.63;;;2.54;56.24
75668;BME280;64266;48.798;44.756;2022-12-20T12:59:45;103214.03;;;2.80;56.02
75668;BME280;64266;48.798;44.756;2022-12-20T13:09:57;103265.88;;;3.12;55.55
75668;BME280;64266;48.798;44.756;2022-12-20T13:14:59;103269.22;;;3.14;56.17
75668;BME280;64266;48.798;44.756;2022-12-20T13:19:55;103232.47;;;2.91;54.63
75668;BME280;64266;48.798;44.756;2022-12-20T13:22:22;103229.00;;;2.78;56.38
75668;BME280;64266;48.798;44.756;2022-12-20T13:24:58;103253.34;;;2.92;56.35
75668;BME280;64266;48.798;44.756;2022-12-20T13:27:39;103255.63;;;2.97;55.98
75668;BME280;64266;48.798;44.756;2022-12-20T13:38:35;103245.34;;;2.81;56.03
75668;BME280;64266;48.798;44.756;2022-12-20T13:43:41;103244.72;;;2.65;56.08
75668;BME280;64266;48.798;44.756;2022-12-20T13:51:04;103230.47;;;2.44;57.30
75668;BME280;64266;48.798;44.756;2022-12-20T13:53:32;103260.03;;;2.58;57.04
75668;BME280;64266;48.798;44.756;2022-12-20T13:59:02;103229.00;;;2.27;56.99
75668;BME280;64266;48.798;44.756;2022-12-20T14:01:29;103219.56;;;2.12;58.35
75668;BME280;64266;48.798;44.756;2022-12-20T14:04:03;103239.69;;;2.24;58.88
75668;BME280;64266;48.798;44.756;2022-12-20T14:06:32;103230.47;;;2.31;58.50
75668;BME280;64266;48.798;44.756;2022-12-20T14:09:32;103205.72;;;2.10;59.28
75668;BME280;64266;48.798;44.756;2022-12-20T14:12:09;103042.31;;;1.12;59.23
75668;BME280;64266;48.798;44.756;2022-12-20T14:14:44;103233.78;;;2.08;58.72
75668;BME280;64266;48.798;44.756;2022-12-20T14:17:23;103189.31;;;1.69;58.60
75668;BME280;64266;48.798;44.756;2022-12-20T14:23:04;103228.50;;;1.95;58.16
75668;BME280;64266;48.798;44.756;2022-12-20T14:25:43;103216.34;;;1.94;58.86
75668;BME280;64266;48.798;44.756;2022-12-20T14:28:35;103223.00;;;2.00;59.29
75668;BME280;64266;48.798;44.756;2022-12-20T14:31:05;103220.78;;;1.94;59.04
75668;BME280;64266;48.798;44.756;2022-12-20T14:33:36;103233.31;;;1.89;59.03
75668;BME280;64266;48.798;44.756;2022-12-20T14:38:47;103227.38;;;1.73;59.30
75668;BME280;64266;48.798;44.756;2022-12-20T14:41:37;103236.97;;;1.59;59.32
75668;BME280;64266;48.798;44.756;2022-12-20T14:46:36;103230.25;;;1.55;59.88
75668;BME280;64266;48.798;44.756;2022-12-20T14:51:49;103231.38;;;1.51;60.05
75668;BME280;64266;48.798;44.756;2022-12-20T14:54:20;103230.84;;;1.46;59.57
75668;BME280;64266;48.798;44.756;2022-12-20T14:56:48;103217.25;;;1.27;60.53
75668;BME280;64266;48.798;44.756;2022-12-20T14:59:30;103173.84;;;0.98;60.39
75668;BME280;64266;48.798;44.756;2022-12-20T15:01:56;103232.06;;;1.41;59.99
75668;BME280;64266;48.798;44.756;2022-12-20T15:04:31;103233.50;;;1.32;59.89
75668;BME280;64266;48.798;44.756;2022-12-20T15:06:59;103237.69;;;1.21;59.37
75668;BME280;64266;48.798;44.756;2022-12-20T15:09:25;103210.94;;;1.03;61.37
75668;BME280;64266;48.798;44.756;2022-12-20T15:11:51;103222.72;;;1.10;60.19